Time;durP1;ratioP1;P1;durP2;ratioP2;P2;SDS_P1;SDS_P2;PMS_P1;PMS_P2;Temp;Humidity;BMP_temperature;BMP_pressure;BME280_temperature;BME280_humidity;BME280_pressure;Samples;Min_cycle;Max_cycle;Signal;HPM_P1;HPM_P2
2023/12/15 00:00:44;;;;;;;1.40;1.30;;;;;;;10.99;76.33;94427.59;5050392;28;20684;-47
2023/12/15 00:03:13;;;;;;;1.60;1.50;;;;;;;11.00;76.35;94430.97;5049592;28;20293;-48
2023/12/15 00:05:40;;;;;;;1.47;1.40;;;;;;;11.01;76.16;94428.28;5047854;28;20255;-47
2023/12/15 00:08:08;;;;;;;1.60;1.50;;;;;;;11.01;76.30;94433.41;5049642;28;20190;-47
2023/12/15 00:10:43;;;;;;;1.70;1.60;;;;;;;11.03;76.27;94430.69;5047829;28;20190;-47
2023/12/15 00:13:10;;;;;;;1.50;1.40;;;;;;;11.04;76.34;94434.84;5050323;28;20194;-47
2023/12/15 00:15:45;;;;;;;1.40;1.40;;;;;;;11.04;76.01;94435.66;5050953;28;20215;-47
2023/12/15 00:18:14;;;;;;;1.53;1.43;;;;;;;11.03;76.35;94434.03;5040009;28;20282;-47
2023/12/15 00:20:49;;;;;;;1.60;1.50;;;;;;;11.00;76.10;94436.88;5030657;28;20188;-49
2023/12/15 00:23:19;;;;;;;1.70;1.60;;;;;;;11.06;76.33;94445.75;5030014;28;20323;-46
2023/12/15 00:25:54;;;;;;;1.40;1.40;;;;;;;11.07;76.38;94452.47;5028402;28;20226;-47
2023/12/15 00:28:21;;;;;;;1.50;1.40;;;;;;;11.07;76.24;94457.59;5037350;28;20183;-47
2023/12/15 00:30:49;;;;;;;1.40;1.30;;;;;;;11.08;76.29;94455.84;5049967;28;20187;-47
2023/12/15 00:33:25;;;;;;;1.73;1.63;;;;;;;11.09;76.03;94455.66;5049727;28;20583;-47
2023/12/15 00:35:55;;;;;;;1.40;1.30;;;;;;;11.02;76.31;94452.09;5050051;28;20218;-48
2023/12/15 00:38:23;;;;;;;1.60;1.50;;;;;;;11.11;76.22;94458.09;5048280;28;20195;-47
2023/12/15 00:41:01;;;;;;;1.50;1.40;;;;;;;11.11;76.27;94463.22;5048642;28;20196;-46
2023/12/15 00:43:28;;;;;;;1.30;1.30;;;;;;;11.11;76.35;94469.16;5049882;28;20195;-48
2023/12/15 00:45:56;;;;;;;1.30;1.30;;;;;;;11.11;76.42;94468.34;5049533;28;20179;-46
2023/12/15 00:48:23;;;;;;;1.67;1.53;;;;;;;11.14;76.07;94480.81;5049636;28;20195;-46
2023/12/15 00:50:50;;;;;;;1.70;1.50;;;;;;;11.00;76.18;94454.00;5047655;28;20234;-46
2023/12/15 00:53:16;;;;;;;1.57;1.40;;;;;;;11.14;76.30;94484.22;5048901;28;20183;-46
2023/12/15 00:55:43;;;;;;;1.50;1.40;;;;;;;11.14;76.20;94484.22;5029756;28;20231;-47
2023/12/15 00:58:10;;;;;;;1.40;1.40;;;;;;;11.16;76.23;94494.28;5029937;28;20204;-46
2023/12/15 01:00:39;;;;;;;1.70;1.60;;;;;;;11.16;76.34;94491.75;5030784;28;20184;-48
2023/12/15 01:03:10;;;;;;;1.40;1.40;;;;;;;11.12;76.17;94478.41;5030195;28;20200;-46
2023/12/15 01:05:40;;;;;;;1.60;1.50;;;;;;;11.16;76.36;94495.09;5030774;28;20195;-47
2023/12/15 01:08:07;;;;;;;1.50;1.40;;;;;;;11.14;76.22;94488.50;5029948;28;20207;-47
2023/12/15 01:10:34;;;;;;;1.30;1.30;;;;;;;11.18;76.32;94493.22;5029971;28;20198;-47
2023/12/15 01:13:01;;;;;;;1.30;1.30;;;;;;;11.18;76.42;94492.38;5040070;28;20183;-47
2023/12/15 01:15:27;;;;;;;1.30;1.30;;;;;;;11.19;76.42;94488.91;5051235;28;20211;-47
2023/12/15 01:17:54;;;;;;;1.60;1.50;;;;;;;11.18;76.34;94489.81;5038810;28;20199;-48
2023/12/15 01:20:22;;;;;;;1.20;1.20;;;;;;;11.18;76.46;94493.22;5042879;28;20191;-47
2023/12/15 01:22:49;;;;;;;1.30;1.30;;;;;;;10.99;76.19;94460.88;5038142;28;20304;-46
2023/12/15 01:25:16;;;;;;;1.30;1.20;;;;;;;11.19;76.48;94494.81;5055951;28;20186;-47
2023/12/15 01:27:43;;;;;;;1.40;1.40;;;;;;;11.18;76.37;94502.63;5055937;28;20721;-48
2023/12/15 01:30:10;;;;;;;1.60;1.50;;;;;;;11.18;76.38;94513.69;5054248;28;20635;-47
2023/12/15 01:32:37;;;;;;;1.40;1.40;;;;;;;11.19;76.35;94514.50;5044412;28;20679;-47
2023/12/15 01:35:04;;;;;;;1.70;1.60;;;;;;;11.19;76.37;94510.16;5035997;28;20207;-48
2023/12/15 01:37:32;;;;;;;1.40;1.30;;;;;;;11.20;76.47;94508.41;5036326;28;20184;-46
2023/12/15 01:39:59;;;;;;;1.60;1.50;;;;;;;11.19;76.54;94509.38;5036253;28;20191;-46
2023/12/15 01:42:26;;;;;;;1.40;1.40;;;;;;;11.19;76.49;94515.28;5040437;28;20194;-47
2023/12/15 01:44:53;;;;;;;1.40;1.40;;;;;;;11.16;76.43;94510.44;5055936;28;20223;-46
2023/12/15 01:47:26;;;;;;;1.40;1.40;;;;;;;11.20;76.57;94513.53;5055495;28;20248;-47
2023/12/15 01:49:53;;;;;;;1.40;1.40;;;;;;;11.20;76.57;94516.09;5055820;28;20268;-47
2023/12/15 01:52:20;;;;;;;1.60;1.50;;;;;;;11.20;76.52;94516.09;5054205;28;20187;-47
2023/12/15 01:54:48;;;;;;;1.10;1.10;;;;;;;11.19;76.81;94522.97;5039378;28;20223;-47
2023/12/15 01:57:15;;;;;;;1.70;1.53;;;;;;;11.20;76.80;94523.78;5035362;28;20195;-46
2023/12/15 01:59:43;;;;;;;1.23;1.23;;;;;;;11.21;76.70;94517.69;5035780;28;20291;-48
2023/12/15 02:02:10;;;;;;;1.67;1.57;;;;;;;11.20;76.75;94522.00;5035342;28;20199;-46
2023/12/15 02:04:37;;;;;;;1.57;1.47;;;;;;;11.20;76.86;94514.34;5046307;28;20664;-46
2023/12/15 02:07:04;;;;;;;1.50;1.40;;;;;;;11.21;76.80;94515.94;5043208;28;20198;-47
2023/12/15 02:09:31;;;;;;;1.40;1.30;;;;;;;11.21;76.79;94525.38;5054361;28;20731;-46
2023/12/15 02:11:59;;;;;;;1.50;1.40;;;;;;;11.21;76.84;94525.38;5043592;28;20195;-47
2023/12/15 02:14:26;;;;;;;1.60;1.50;;;;;;;11.20;76.85;94528.88;5035921;28;20254;-49
2023/12/15 02:16:53;;;;;;;1.40;1.30;;;;;;;11.20;76.81;94528.88;5036381;28;20234;-46
2023/12/15 02:19:20;;;;;;;1.60;1.50;;;;;;;11.20;76.66;94534.81;5036150;28;20184;-46
2023/12/15 02:21:47;;;;;;;1.20;1.20;;;;;;;11.19;76.75;94538.31;5036380;28;20641;-47
2023/12/15 02:24:15;;;;;;;1.40;1.30;;;;;;;11.19;76.99;94535.75;5041715;28;20236;-48
2023/12/15 02:26:42;;;;;;;1.50;1.40;;;;;;;11.18;76.86;94535.88;5054603;28;20583;-47
2023/12/15 02:29:08;;;;;;;1.40;1.40;;;;;;;11.05;77.04;94524.28;5051515;28;20179;-46
2023/12/15 02:31:35;;;;;;;1.30;1.30;;;;;;;11.17;77.12;94539.41;5050471;28;20614;-47
2023/12/15 02:34:02;;;;;;;1.30;1.30;;;;;;;11.01;76.96;94517.84;5046311;28;20626;-47
2023/12/15 02:36:29;;;;;;;1.70;1.60;;;;;;;11.13;76.95;94554.25;5054109;28;20253;-47
2023/12/15 02:38:58;;;;;;;1.30;1.30;;;;;;;11.08;76.99;94543.63;5055582;28;20195;-48
2023/12/15 02:41:29;;;;;;;1.73;1.60;;;;;;;11.13;77.14;94551.69;5054131;28;20197;-47
2023/12/15 02:43:55;;;;;;;1.40;1.40;;;;;;;10.91;76.97;94519.63;5048501;28;20187;-47
2023/12/15 02:46:22;;;;;;;1.43;1.43;;;;;;;11.13;77.07;94561.13;5051340;28;20636;-47
2023/12/15 02:48:49;;;;;;;2.83;1.50;;;;;;;11.08;77.10;94547.94;5051748;28;20556;-48
2023/12/15 02:51:26;;;;;;;1.40;1.40;;;;;;;11.16;77.14;94564.19;5052152;28;20644;-47
2023/12/15 02:53:52;;;;;;;1.70;1.60;;;;;;;11.16;76.95;94571.06;5051705;28;20694;-48
2023/12/15 02:56:19;;;;;;;1.57;1.47;;;;;;;11.15;77.05;94565.16;5045365;28;20600;-47
2023/12/15 02:58:48;;;;;;;1.77;1.67;;;;;;;11.12;77.22;94570.56;5040187;28;20672;-46
2023/12/15 03:01:15;;;;;;;1.40;1.40;;;;;;;11.15;77.28;94572.03;5051569;28;20198;-48
2023/12/15 03:03:42;;;;;;;1.90;1.80;;;;;;;11.12;77.23;94568.00;5051611;28;20187;-47
2023/12/15 03:06:09;;;;;;;1.60;1.50;;;;;;;11.15;77.27;94577.94;5042141;28;20202;-47
2023/12/15 03:08:36;;;;;;;1.70;1.60;;;;;;;11.05;77.12;94565.22;5031577;28;20196;-48
2023/12/15 03:11:03;;;;;;;1.60;1.50;;;;;;;11.11;77.28;94576.63;5031192;28;20699;-48
2023/12/15 03:13:30;;;;;;;1.80;1.70;;;;;;;11.13;77.23;94574.72;5040600;28;20571;-46
2023/12/15 03:16:04;;;;;;;1.70;1.60;;;;;;;11.14;77.34;94583.19;5050744;28;20245;-47
2023/12/15 03:18:30;;;;;;;1.80;1.70;;;;;;;11.00;77.22;94564.00;5051745;28;20248;-48
2023/12/15 03:20:57;;;;;;;1.90;1.80;;;;;;;10.97;77.22;94569.44;5051358;28;20187;-46
2023/12/15 03:23:24;;;;;;;1.73;1.63;;;;;;;11.14;77.29;94594.25;5048484;28;20618;-47
2023/12/15 03:25:51;;;;;;;2.13;1.97;;;;;;;11.07;77.53;94577.06;5031482;28;20238;-47
2023/12/15 03:28:17;;;;;;;2.20;2.00;;;;;;;10.83;77.27;94545.13;5031600;28;20199;-46
2023/12/15 03:30:44;;;;;;;1.90;1.80;;;;;;;11.12;77.24;94592.78;5031180;28;20324;-46
2023/12/15 03:33:12;;;;;;;2.30;2.10;;;;;;;11.15;77.37;94589.94;5032746;28;20681;-46
2023/12/15 03:35:39;;;;;;;1.90;1.80;;;;;;;11.02;77.29;94574.94;5031490;28;20211;-48
2023/12/15 03:38:06;;;;;;;2.10;1.90;;;;;;;11.14;77.24;94601.94;5031159;28;20191;-46
2023/12/15 03:40:34;;;;;;;1.90;1.80;;;;;;;11.11;77.22;94594.53;5030418;28;20254;-45
2023/12/15 03:43:07;;;;;;;2.30;2.20;;;;;;;11.14;77.27;94599.38;5030529;28;20203;-46
2023/12/15 03:45:40;;;;;;;2.50;2.30;;;;;;;11.14;77.23;94598.56;5032267;28;20222;-47
2023/12/15 03:48:07;;;;;;;3.17;2.40;;;;;;;11.13;77.33;94605.44;5031055;28;20595;-47
2023/12/15 03:50:35;;;;;;;2.93;2.73;;;;;;;11.12;77.32;94611.50;5030909;28;20188;-47
2023/12/15 03:53:02;;;;;;;2.60;2.40;;;;;;;11.13;77.40;94612.31;5031036;28;20631;-48
2023/12/15 03:55:29;;;;;;;2.47;2.27;;;;;;;11.13;77.23;94609.75;5038656;28;20198;-47
2023/12/15 03:57:56;;;;;;;2.80;2.60;;;;;;;11.07;77.28;94613.69;5045229;28;20274;-46
2023/12/15 04:00:22;;;;;;;5.50;3.13;;;;;;;11.12;77.41;94618.38;5030631;28;20628;-47
2023/12/15 04:02:49;;;;;;;2.80;2.60;;;;;;;11.12;77.34;94621.75;5030911;28;20641;-47
2023/12/15 04:05:22;;;;;;;3.17;2.90;;;;;;;11.12;77.29;94623.50;5031950;28;20186;-47
2023/12/15 04:07:50;;;;;;;3.30;3.03;;;;;;;11.07;77.43;94615.44;5029992;28;20199;-46
2023/12/15 04:10:17;;;;;;;2.93;2.63;;;;;;;11.11;77.39;94617.56;5030519;28;20664;-46
2023/12/15 04:12:44;;;;;;;3.13;2.90;;;;;;;11.11;77.32;94630.38;5035439;28;20202;-46
2023/12/15 04:15:11;;;;;;;3.00;2.70;;;;;;;10.55;77.31;94537.47;5045394;28;20192;-46
2023/12/15 04:17:37;;;;;;;3.47;3.17;;;;;;;11.02;77.42;94603.06;5030102;28;20265;-46
2023/12/15 04:20:07;;;;;;;3.13;2.93;;;;;;;11.12;77.14;94618.38;5031320;28;20198;-47
2023/12/15 04:22:34;;;;;;;4.50;3.13;;;;;;;11.12;77.27;94633.72;5029808;28;20696;-46
2023/12/15 04:25:02;;;;;;;3.17;2.90;;;;;;;11.08;77.20;94630.66;5030393;28;20184;-48
2023/12/15 04:27:31;;;;;;;4.00;3.53;;;;;;;11.09;77.15;94627.13;5030074;28;20238;-47
2023/12/15 04:29:58;;;;;;;3.23;3.03;;;;;;;11.10;77.34;94633.88;5030148;28;20342;-47
2023/12/15 04:32:25;;;;;;;4.20;3.80;;;;;;;11.12;77.37;94626.06;5031020;28;20225;-46
2023/12/15 04:34:52;;;;;;;3.87;3.57;;;;;;;11.08;77.43;94625.53;5029845;28;20183;-48
2023/12/15 04:37:21;;;;;;;3.53;3.23;;;;;;;11.07;77.25;94623.91;5048057;28;20219;-47
2023/12/15 04:39:54;;;;;;;3.73;3.20;;;;;;;11.10;77.29;94639.00;5031877;28;20191;-47
2023/12/15 04:42:25;;;;;;;3.70;3.30;;;;;;;11.07;77.10;94634.16;5048036;28;20198;-46
2023/12/15 04:44:53;;;;;;;3.60;3.30;;;;;;;11.10;77.44;94654.34;5048748;28;20656;-46
2023/12/15 04:47:27;;;;;;;3.67;3.37;;;;;;;11.10;77.50;94659.47;5049185;28;20286;-47
2023/12/15 04:49:56;;;;;;;3.87;3.47;;;;;;;11.02;77.25;94646.59;5049721;28;20217;-48
2023/12/15 04:52:26;;;;;;;3.87;3.57;;;;;;;11.09;77.52;94662.97;5034761;28;20209;-48
2023/12/15 04:54:53;;;;;;;3.60;3.30;;;;;;;10.95;77.52;94636.09;5043614;28;20637;-48
2023/12/15 04:57:20;;;;;;;3.53;3.00;;;;;;;11.10;77.39;94667.16;5049102;28;20226;-47
2023/12/15 04:59:50;;;;;;;3.83;3.53;;;;;;;11.10;77.46;94669.72;5049164;28;20191;-46
2023/12/15 05:02:18;;;;;;;3.83;3.53;;;;;;;11.10;77.42;94676.59;5049701;28;20564;-48
2023/12/15 05:04:49;;;;;;;4.47;3.97;;;;;;;11.10;77.43;94672.28;5041407;28;20269;-47
2023/12/15 05:07:20;;;;;;;4.60;4.20;;;;;;;11.10;77.24;94672.28;5036642;28;20679;-48
2023/12/15 05:09:51;;;;;;;4.03;3.70;;;;;;;11.10;77.40;94674.84;5030218;28;20198;-46
2023/12/15 05:12:18;;;;;;;4.20;3.80;;;;;;;11.10;77.48;94676.59;5030270;28;20308;-47
2023/12/15 05:14:44;;;;;;;3.97;3.67;;;;;;;11.10;77.50;94674.03;5033267;28;20195;-47
2023/12/15 05:17:12;;;;;;;4.53;3.87;;;;;;;11.07;77.47;94672.53;5050619;28;20222;-47
2023/12/15 05:19:39;;;;;;;3.97;3.63;;;;;;;11.12;77.39;94679.78;5035404;28;20183;-48
2023/12/15 05:22:07;;;;;;;3.50;3.20;;;;;;;11.11;77.26;94683.31;5029418;28;20286;-47
2023/12/15 05:24:34;;;;;;;6.23;4.37;;;;;;;11.11;77.40;94683.31;5035043;28;20248;-47
2023/12/15 05:27:01;;;;;;;4.10;3.70;;;;;;;11.09;77.38;94685.19;5049571;28;20222;-47
2023/12/15 05:29:28;;;;;;;4.00;3.70;;;;;;;11.10;77.34;94685.06;5039828;28;20195;-46
2023/12/15 05:31:54;;;;;;;3.90;3.57;;;;;;;11.11;77.15;94696.91;5029046;28;20672;-48
2023/12/15 05:34:40;;;;;;;4.00;3.60;;;;;;;11.05;77.42;94693.16;5029312;28;20192;-48
2023/12/15 05:37:08;;;;;;;3.87;3.57;;;;;;;11.12;77.23;94706.19;5029030;28;20227;-47
2023/12/15 05:39:42;;;;;;;4.10;3.70;;;;;;;11.12;77.29;94707.94;5028964;28;20223;-47
2023/12/15 05:42:10;;;;;;;4.07;3.67;;;;;;;11.12;77.31;94713.06;5028883;28;20200;-47
2023/12/15 05:44:39;;;;;;;3.43;3.13;;;;;;;11.12;77.11;94713.88;5028981;28;20191;-46
2023/12/15 05:47:07;;;;;;;4.77;4.30;;;;;;;11.13;77.37;94722.34;5029688;28;20202;-46
2023/12/15 05:49:43;;;;;;;4.47;4.07;;;;;;;11.11;77.44;94714.03;5030734;28;20188;-47
2023/12/15 05:52:11;;;;;;;3.87;3.40;;;;;;;11.13;77.22;94719.78;5028546;28;20241;-46
2023/12/15 05:54:40;;;;;;;4.30;3.90;;;;;;;11.12;77.09;94724.09;5029403;28;20188;-46
2023/12/15 05:57:07;;;;;;;4.37;3.90;;;;;;;11.12;77.24;94726.66;5028936;28;20250;-46
2023/12/15 05:59:34;;;;;;;4.20;3.80;;;;;;;11.12;77.21;94731.78;5029410;28;20179;-47
2023/12/15 06:02:01;;;;;;;4.10;3.77;;;;;;;11.07;77.10;94722.94;5029107;28;20184;-48
2023/12/15 06:04:27;;;;;;;4.40;4.00;;;;;;;11.11;77.26;94731.94;5032809;28;20211;-47
2023/12/15 06:06:56;;;;;;;4.23;3.93;;;;;;;11.12;77.20;94729.22;5032546;28;20196;-47
2023/12/15 06:09:25;;;;;;;3.80;3.50;;;;;;;11.12;77.30;94733.53;5031649;28;20223;-48
2023/12/15 06:11:53;;;;;;;4.33;3.93;;;;;;;11.12;77.00;94731.78;5050665;28;20297;-46
2023/12/15 06:14:21;;;;;;;4.70;3.20;;;;;;;11.45;100.00;94699.72;5051555;28;20554;-46
2023/12/15 06:16:48;;;;;;;6.10;3.93;;;;;;;12.14;100.00;94695.81;5033544;28;20224;-45
2023/12/15 06:19:17;;;;;;;5.27;3.03;;;;;;;13.23;100.00;94737.31;5032387;28;20242;-46
2023/12/15 06:21:49;;;;;;;3.40;3.10;;;;;;;13.80;100.00;94736.75;5032485;28;20180;-47
2023/12/15 06:24:19;;;;;;;5.30;3.57;;;;;;;13.98;100.00;94739.19;5035424;28;20798;-47
2023/12/15 06:26:49;;;;;;;4.67;3.23;;;;;;;14.00;100.00;94742.44;5044411;28;20206;-49
2023/12/15 06:29:16;;;;;;;6.80;4.00;;;;;;;13.92;100.00;94756.06;5030383;28;20203;-47
2023/12/15 06:31:46;;;;;;;4.33;3.80;;;;;;;13.67;97.92;94739.75;5032738;28;20199;-48
2023/12/15 06:34:12;;;;;;;7.87;3.33;;;;;;;13.66;95.50;94766.41;5052087;28;20260;-48
2023/12/15 06:36:40;;;;;;;4.87;3.43;;;;;;;13.52;93.23;94756.72;5028733;28;20234;-45
2023/12/15 06:39:07;;;;;;;6.53;4.13;;;;;;;13.42;91.98;94766.28;5032414;28;20586;-45
2023/12/15 06:41:35;;;;;;;9.07;3.97;;;;;;;13.22;90.61;94758.81;5032675;28;20572;-46
2023/12/15 06:44:02;;;;;;;5.67;3.80;;;;;;;13.16;89.90;94767.09;5037928;28;20194;-47
2023/12/15 06:46:39;;;;;;;5.00;3.80;;;;;;;12.98;88.82;94761.19;5041430;28;20208;-46
2023/12/15 06:49:08;;;;;;;4.53;4.03;;;;;;;12.93;88.35;94768.56;5032118;28;20195;-46
2023/12/15 06:51:37;;;;;;;7.33;4.57;;;;;;;12.81;87.63;94779.03;5050773;28;20195;-48
2023/12/15 06:54:05;;;;;;;5.60;4.43;;;;;;;12.72;87.35;94786.84;5050162;28;20195;-46
2023/12/15 06:56:32;;;;;;;5.40;4.07;;;;;;;12.63;87.31;94793.66;5051661;28;20580;-46
2023/12/15 06:59:03;;;;;;;4.67;4.27;;;;;;;12.54;87.03;94787.66;5042567;28;20199;-48
2023/12/15 07:01:32;;;;;;;5.90;4.47;;;;;;;12.47;86.37;94798.66;5050283;28;20191;-47
2023/12/15 07:04:00;;;;;;;6.00;4.33;;;;;;;12.21;86.39;94765.22;5043958;28;20195;-47
2023/12/15 07:06:30;;;;;;;6.57;4.27;;;;;;;12.28;86.10;94802.16;5030176;28;20208;-47
2023/12/15 07:09:02;;;;;;;5.17;4.67;;;;;;;12.26;86.03;94812.56;5031593;28;20219;-47
2023/12/15 07:11:30;;;;;;;7.37;4.33;;;;;;;12.20;85.79;94818.28;5031577;28;20244;-47
2023/12/15 07:14:04;;;;;;;5.37;4.80;;;;;;;12.14;85.48;94821.41;5030898;28;20200;-47
2023/12/15 07:16:31;;;;;;;6.47;4.87;;;;;;;12.10;85.49;94825.22;5039378;28;20521;-49
2023/12/15 07:18:57;;;;;;;4.87;4.37;;;;;;;12.04;85.21;94818.09;5052037;28;20241;-49
2023/12/15 07:21:24;;;;;;;4.97;4.53;;;;;;;11.45;85.02;94743.25;5045249;28;20207;-46
2023/12/15 07:23:51;;;;;;;6.50;5.13;;;;;;;11.90;84.67;94814.25;5032052;28;20674;-48
2023/12/15 07:26:18;;;;;;;6.00;4.77;;;;;;;11.92;84.51;94821.81;5050491;28;20198;-48
2023/12/15 07:28:45;;;;;;;5.83;4.67;;;;;;;11.89;84.53;94817.78;5054523;28;20199;-47
2023/12/15 07:31:14;;;;;;;5.10;4.60;;;;;;;11.72;84.22;94803.91;5052149;28;20187;-47
2023/12/15 07:33:42;;;;;;;6.00;5.33;;;;;;;11.81;84.13;94828.69;5054824;28;20199;-49
2023/12/15 07:36:12;;;;;;;5.70;4.87;;;;;;;11.78;84.13;94833.28;5045008;28;20196;-48
2023/12/15 07:38:46;;;;;;;5.40;4.90;;;;;;;11.75;83.81;94836.16;5036488;28;20227;-46
2023/12/15 07:41:22;;;;;;;5.33;4.60;;;;;;;11.69;83.60;94836.69;5038842;28;20199;-48
2023/12/15 07:43:50;;;;;;;5.67;5.07;;;;;;;11.70;83.32;94843.44;5037859;28;20758;-48
2023/12/15 07:46:22;;;;;;;5.63;5.13;;;;;;;11.68;83.47;94853.03;5034930;28;20282;-48
2023/12/15 07:48:56;;;;;;;6.20;5.30;;;;;;;11.65;83.27;94850.72;5037334;28;20212;-46
2023/12/15 07:51:28;;;;;;;5.03;4.53;;;;;;;11.62;83.09;94856.97;5041874;28;20183;-46
2023/12/15 07:53:55;;;;;;;6.00;5.40;;;;;;;11.61;83.15;94851.97;5028787;28;20204;-45
2023/12/15 07:56:34;;;;;;;5.30;4.80;;;;;;;11.59;83.17;94859.00;5032335;28;20176;-47
2023/12/15 07:59:08;;;;;;;5.70;5.20;;;;;;;11.39;82.89;94838.53;5031093;28;20196;-46
2023/12/15 08:01:50;;;;;;;6.20;5.20;;;;;;;11.54;82.93;94864.53;5034034;28;20218;-46
2023/12/15 08:04:23;;;;;;;6.13;5.53;;;;;;;11.53;82.71;94875.72;5028226;28;20195;-51
2023/12/15 08:06:51;;;;;;;6.60;5.20;;;;;;;11.45;82.61;94871.28;5030269;28;20206;-47
2023/12/15 08:09:18;;;;;;;5.47;4.97;;;;;;;11.21;82.38;94841.00;5032466;28;20633;-46
2023/12/15 08:11:46;;;;;;;7.20;5.33;;;;;;;11.46;82.44;94887.47;5030137;28;20297;-46
2023/12/15 08:14:14;;;;;;;8.03;5.67;;;;;;;11.47;82.52;94902.69;5013571;28;20526;-47
2023/12/15 08:16:42;;;;;;;6.43;4.77;;;;;;;11.47;82.37;94899.31;5065103;28;20196;-47
2023/12/15 08:19:10;;;;;;;6.10;5.50;;;;;;;11.47;82.38;94899.31;5031152;28;20198;-47
2023/12/15 08:21:38;;;;;;;6.53;4.83;;;;;;;11.47;82.42;94907.00;5030769;28;20277;-46
2023/12/15 08:24:08;;;;;;;6.80;5.20;;;;;;;11.46;82.09;94900.28;5031906;28;20223;-47
2023/12/15 08:26:36;;;;;;;7.43;5.63;;;;;;;11.42;82.12;94894.59;5028962;28;20600;-47
2023/12/15 08:29:03;;;;;;;7.10;5.00;;;;;;;11.44;82.03;94891.91;5032321;28;20199;-48
2023/12/15 08:31:34;;;;;;;6.67;5.73;;;;;;;11.46;82.09;94900.28;5031891;28;20203;-47
2023/12/15 08:34:05;;;;;;;6.33;5.40;;;;;;;11.45;81.92;94899.47;5029307;28;20179;-48
2023/12/15 08:36:33;;;;;;;5.03;4.53;;;;;;;11.46;81.71;94908.75;5030898;28;20192;-46
2023/12/15 08:39:00;;;;;;;7.47;5.67;;;;;;;11.47;81.85;94907.00;5029769;28;20234;-47
2023/12/15 08:41:27;;;;;;;8.40;5.50;;;;;;;11.44;81.73;94902.97;5029403;28;20191;-46
2023/12/15 08:43:54;;;;;;;5.90;5.30;;;;;;;11.38;81.60;94892.47;5033617;28;20190;-46
2023/12/15 08:46:24;;;;;;;6.70;5.23;;;;;;;11.50;81.44;94909.28;5029303;28;20191;-47
2023/12/15 08:48:54;;;;;;;5.90;5.30;;;;;;;11.50;81.49;94907.53;5028739;28;20580;-46
2023/12/15 08:51:23;;;;;;;5.93;5.33;;;;;;;11.50;81.32;94902.41;5028793;28;20203;-48
2023/12/15 08:53:50;;;;;;;5.43;4.70;;;;;;;11.39;81.27;94894.06;5028387;28;20286;-46
2023/12/15 08:56:17;;;;;;;5.77;5.17;;;;;;;11.53;81.22;94911.59;5028821;28;20199;-46
2023/12/15 08:58:43;;;;;;;6.57;5.87;;;;;;;11.51;81.20;94908.34;5028483;28;20567;-47
2023/12/15 09:01:10;;;;;;;5.80;5.10;;;;;;;11.55;81.28;94912.25;5028871;28;20318;-47
2023/12/15 09:03:37;;;;;;;6.00;5.30;;;;;;;11.52;80.99;94912.50;5027650;28;20261;-47
2023/12/15 09:06:04;;;;;;;6.27;5.67;;;;;;;11.56;80.78;94913.84;5029859;28;20725;-46
2023/12/15 09:08:32;;;;;;;6.30;5.30;;;;;;;11.55;80.96;94913.03;5029205;28;20254;-52
2023/12/15 09:10:59;;;;;;;5.97;5.10;;;;;;;11.56;80.99;94914.66;5028803;28;20638;-47
2023/12/15 09:13:26;;;;;;;6.63;5.20;;;;;;;11.54;80.71;94908.06;5029178;28;20187;-49
2023/12/15 09:15:53;;;;;;;6.23;5.47;;;;;;;11.57;80.71;94900.09;5032241;28;20191;-46
2023/12/15 09:18:20;;;;;;;4.97;4.57;;;;;;;11.59;80.60;94905.09;5031405;28;20211;-47
2023/12/15 09:20:49;;;;;;;7.17;5.70;;;;;;;11.57;80.56;94897.53;5043875;28;20207;-47
2023/12/15 09:23:20;;;;;;;5.67;5.10;;;;;;;11.60;80.57;94899.03;5035176;28;20234;-48
2023/12/15 09:25:49;;;;;;;7.93;5.97;;;;;;;11.62;80.37;94908.19;5028768;28;20199;-46
2023/12/15 09:28:16;;;;;;;6.17;5.57;;;;;;;11.62;80.38;94903.06;5028730;28;20195;-46
2023/12/15 09:30:43;;;;;;;6.63;4.90;;;;;;;11.60;80.21;94901.56;5030156;28;20665;-46
2023/12/15 09:33:10;;;;;;;6.57;4.90;;;;;;;11.59;80.23;94895.66;5028785;28;20195;-46
2023/12/15 09:35:40;;;;;;;7.57;5.97;;;;;;;11.63;80.11;94901.31;5028471;28;20227;-46
2023/12/15 09:38:07;;;;;;;6.20;4.90;;;;;;;11.64;80.09;94903.72;5012359;28;20238;-47
2023/12/15 09:40:35;;;;;;;7.37;5.83;;;;;;;11.65;80.13;94901.97;5039426;28;20187;-47
2023/12/15 09:43:03;;;;;;;8.67;6.40;;;;;;;11.62;79.91;94892.03;5033125;28;20246;-47
2023/12/15 09:45:30;;;;;;;6.23;5.50;;;;;;;11.68;80.00;94906.81;5032266;28;20199;-46
2023/12/15 09:48:01;;;;;;;6.37;5.53;;;;;;;11.69;79.95;94898.97;5035666;28;20203;-47
2023/12/15 09:50:34;;;;;;;6.23;5.63;;;;;;;11.72;79.83;94900.47;5037867;28;20623;-46
2023/12/15 09:53:03;;;;;;;5.90;5.37;;;;;;;11.71;79.75;94894.53;5035706;28;20195;-46
2023/12/15 09:55:31;;;;;;;6.57;5.80;;;;;;;11.66;79.78;94890.78;5035306;28;20203;-46
2023/12/15 09:58:00;;;;;;;6.50;5.57;;;;;;;11.77;79.59;94911.09;5034085;28;20207;-46
2023/12/15 10:00:29;;;;;;;6.30;5.47;;;;;;;11.79;79.63;94907.47;5036839;28;20291;-46
2023/12/15 10:02:56;;;;;;;7.30;5.87;;;;;;;11.78;79.44;94907.59;5031530;28;20242;-47
2023/12/15 10:05:24;;;;;;;7.73;6.13;;;;;;;11.80;79.81;94909.06;5032310;28;20191;-45
2023/12/15 10:07:51;;;;;;;6.33;5.57;;;;;;;11.83;79.47;94904.63;5031726;28;20945;-46
2023/12/15 10:10:18;;;;;;;6.33;5.47;;;;;;;11.83;79.47;94910.59;5032114;28;20676;-45
2023/12/15 10:12:45;;;;;;;8.13;5.73;;;;;;;11.84;79.26;94909.63;5031670;28;20274;-44
2023/12/15 10:15:11;;;;;;;3.90;3.53;;;;;;;11.90;83.26;94903.13;5032929;28;20687;-45
2023/12/15 10:17:40;;;;;;;4.03;3.63;;;;;;;12.48;100.00;94918.28;5036134;28;20198;-47
2023/12/15 10:20:09;;;;;;;6.03;4.37;;;;;;;12.93;100.00;94914.88;5034265;28;20191;-47
2023/12/15 10:22:39;;;;;;;8.50;4.97;;;;;;;13.08;97.94;94905.69;5031545;28;20646;-46
2023/12/15 10:25:16;;;;;;;5.50;4.70;;;;;;;13.18;95.80;94918.47;5031906;28;20214;-46
2023/12/15 10:27:43;;;;;;;5.77;5.17;;;;;;;13.12;94.38;94911.34;5031607;28;20298;-45
2023/12/15 10:30:11;;;;;;;6.67;5.00;;;;;;;13.15;92.93;94916.97;5032310;28;20199;-46
2023/12/15 10:32:39;;;;;;;5.70;5.00;;;;;;;13.14;91.73;94927.41;5031312;28;20242;-46
2023/12/15 10:35:07;;;;;;;5.33;4.83;;;;;;;13.06;90.61;94916.09;5032062;28;20207;-46
2023/12/15 10:37:35;;;;;;;7.53;5.03;;;;;;;13.00;89.82;94914.13;5037081;28;20191;-47
2023/12/15 10:40:04;;;;;;;5.83;5.07;;;;;;;13.00;89.06;94923.59;5032059;28;20286;-45
2023/12/15 10:42:31;;;;;;;5.63;5.03;;;;;;;12.90;88.46;94917.72;5031807;28;20199;-46
2023/12/15 10:44:59;;;;;;;7.20;5.80;;;;;;;12.87;87.69;94920.59;5031637;28;20214;-45
2023/12/15 10:47:27;;;;;;;6.33;5.43;;;;;;;12.85;87.29;94927.63;5033487;28;20824;-48
2023/12/15 10:49:58;;;;;;;5.43;4.93;;;;;;;12.79;86.63;94931.59;5031112;28;20196;-45
2023/12/15 10:52:26;;;;;;;6.20;5.40;;;;;;;12.72;86.32;94923.66;5031543;28;20583;-46
2023/12/15 10:54:55;;;;;;;6.63;5.93;;;;;;;12.69;85.96;94935.94;5031474;28;20187;-47
2023/12/15 10:57:22;;;;;;;6.83;6.00;;;;;;;12.17;85.44;94867.25;5034397;28;20226;-46
2023/12/15 10:59:50;;;;;;;8.63;6.40;;;;;;;12.62;84.97;94945.19;5028802;28;20704;-47
2023/12/15 11:02:21;;;;;;;6.17;5.50;;;;;;;12.55;84.69;94947.50;5030510;28;20302;-46
2023/12/15 11:04:49;;;;;;;7.43;5.90;;;;;;;12.50;84.44;94944.56;5032205;28;20199;-46
2023/12/15 11:07:24;;;;;;;6.60;3.67;;;;;;;12.62;94.40;94940.88;5037068;28;20180;-45
2023/12/15 11:09:52;;;;;;;4.53;3.70;;;;;;;13.22;100.00;94945.47;5032482;28;20237;-45
2023/12/15 11:12:38;;;;;;;3.60;3.30;;;;;;;13.94;100.00;94938.44;5035170;28;20184;-46
2023/12/15 11:15:07;;;;;;;3.33;3.03;;;;;;;14.55;97.20;94937.50;5031686;28;20195;-46
2023/12/15 11:17:38;;;;;;;3.93;3.50;;;;;;;14.87;94.28;94911.00;5032975;28;20210;-46
2023/12/15 11:20:28;;;;;;;4.63;3.47;;;;;;;15.59;91.31;94947.28;5031003;28;20195;-47
2023/12/15 11:23:06;;;;;;;3.90;3.50;;;;;;;16.06;88.13;94941.41;5029746;28;20222;-45
2023/12/15 11:25:36;;;;;;;4.37;3.93;;;;;;;16.45;85.64;94945.81;5029830;28;20640;-45
2023/12/15 11:28:07;;;;;;;3.63;3.33;;;;;;;16.78;83.63;94943.94;5029858;28;20195;-45
2023/12/15 11:30:36;;;;;;;4.70;3.70;;;;;;;17.06;81.84;94949.44;5029908;28;20199;-46
2023/12/15 11:33:39;;;;;;;3.60;3.00;;;;;;;17.34;79.95;94947.13;5029889;28;20210;-45
2023/12/15 11:36:08;;;;;;;4.97;3.23;;;;;;;17.59;77.98;94968.44;5030669;28;20190;-46
2023/12/15 11:38:38;;;;;;;3.43;3.13;;;;;;;17.74;76.98;94971.09;5030218;28;20212;-46
2023/12/15 11:41:06;;;;;;;3.90;3.50;;;;;;;17.94;76.20;94971.41;5029795;28;20199;-46